sensor_id;sensor_type;location;lat;lon;timestamp;temperature;humidity
53675;DHT22;39574;50.534;8.500;2022-10-16T00:03:42;14.9;99.9
53675;DHT22;39574;50.534;8.500;2022-10-16T00:08:42;14.9;99.9
53675;DHT22;39574;50.534;8.500;2022-10-16T00:18:18;14.9;99.9
53675;DHT22;39574;50.534;8.500;2022-10-16T00:23:23;14.8;99.9
53675;DHT22;39574;50.534;8.500;2022-10-16T00:28:33;14.8;99.9
53675;DHT22;39574;50.534;8.500;2022-10-16T00:33:37;14.8;99.9
53675;DHT22;39574;50.534;8.500;2022-10-16T00:42:55;14.7;99.9
53675;DHT22;39574;50.534;8.500;2022-10-16T00:48:03;14.7;99.9
53675;DHT22;39574;50.534;8.500;2022-10-16T00:53:15;14.6;99.9
53675;DHT22;39574;50.534;8.500;2022-10-16T00:58:29;14.5;99.9
53675;DHT22;39574;50.534;8.500;2022-10-16T01:08:01;14.5;99.9
53675;DHT22;39574;50.534;8.500;2022-10-16T01:13:15;14.4;99.9
53675;DHT22;39574;50.534;8.500;2022-10-16T01:18:26;14.3;99.9
53675;DHT22;39574;50.534;8.500;2022-10-16T01:23:27;14.2;99.9
53675;DHT22;39574;50.534;8.500;2022-10-16T01:28:29;14.2;99.9
53675;DHT22;39574;50.534;8.500;2022-10-16T01:38:07;14.2;99.9
53675;DHT22;39574;50.534;8.500;2022-10-16T01:43:12;14.2;99.9
53675;DHT22;39574;50.534;8.500;2022-10-16T01:48:24;14.2;99.9
53675;DHT22;39574;50.534;8.500;2022-10-16T01:57:52;14.2;99.9
53675;DHT22;39574;50.534;8.500;2022-10-16T02:02:54;14.1;99.9
53675;DHT22;39574;50.534;8.500;2022-10-16T02:08:02;14.0;99.9
53675;DHT22;39574;50.534;8.500;2022-10-16T02:13:09;14.0;99.9
53675;DHT22;39574;50.534;8.500;2022-10-16T02:18:18;14.1;99.9
53675;DHT22;39574;50.534;8.500;2022-10-16T02:27:48;14.0;99.9
53675;DHT22;39574;50.534;8.500;2022-10-16T02:32:58;14.0;99.9
53675;DHT22;39574;50.534;8.500;2022-10-16T02:38:01;14.0;99.9
53675;DHT22;39574;50.534;8.500;2022-10-16T02:43:14;14.0;99.9
53675;DHT22;39574;50.534;8.500;2022-10-16T02:48:15;14.0;99.9
53675;DHT22;39574;50.534;8.500;2022-10-16T02:57:25;14.0;99.9
53675;DHT22;39574;50.534;8.500;2022-10-16T03:02:42;14.0;99.9
53675;DHT22;39574;50.534;8.500;2022-10-16T03:07:53;14.0;99.9
53675;DHT22;39574;50.534;8.500;2022-10-16T03:13:08;14.0;99.9
53675;DHT22;39574;50.534;8.500;2022-10-16T03:18:10;13.9;99.9
53675;DHT22;39574;50.534;8.500;2022-10-16T03:27:20;13.9;99.9
53675;DHT22;39574;50.534;8.500;2022-10-16T03:32:29;14.0;99.9
53675;DHT22;39574;50.534;8.500;2022-10-16T03:37:48;14.0;99.9
53675;DHT22;39574;50.534;8.500;2022-10-16T03:42:51;14.1;99.9
53675;DHT22;39574;50.534;8.500;2022-10-16T03:47:53;14.1;99.9
53675;DHT22;39574;50.534;8.500;2022-10-16T03:53:01;14.2;99.9
53675;DHT22;39574;50.534;8.500;2022-10-16T03:58:06;14.2;99.9
53675;DHT22;39574;50.534;8.500;2022-10-16T04:07:32;14.2;99.9
53675;DHT22;39574;50.534;8.500;2022-10-16T04:12:46;14.1;99.9
53675;DHT22;39574;50.534;8.500;2022-10-16T04:17:48;14.0;99.9
53675;DHT22;39574;50.534;8.500;2022-10-16T04:23:02;14.0;99.9
53675;DHT22;39574;50.534;8.500;2022-10-16T04:32:28;14.0;99.9
53675;DHT22;39574;50.534;8.500;2022-10-16T04:37:41;14.1;99.9
53675;DHT22;39574;50.534;8.500;2022-10-16T04:42:41;14.1;99.9
53675;DHT22;39574;50.534;8.500;2022-10-16T04:47:42;14.1;99.9
53675;DHT22;39574;50.534;8.500;2022-10-16T04:52:48;14.1;99.9
53675;DHT22;39574;50.534;8.500;2022-10-16T04:57:48;14.1;99.9
53675;DHT22;39574;50.534;8.500;2022-10-16T05:02:51;14.1;99.9
53675;DHT22;39574;50.534;8.500;2022-10-16T05:07:54;14.1;99.9
53675;DHT22;39574;50.534;8.500;2022-10-16T05:12:55;14.0;99.9
53675;DHT22;39574;50.534;8.500;2022-10-16T05:22:20;14.1;99.9
53675;DHT22;39574;50.534;8.500;2022-10-16T05:27:32;14.0;99.9
53675;DHT22;39574;50.534;8.500;2022-10-16T05:32:46;14.0;99.9
53675;DHT22;39574;50.534;8.500;2022-10-16T05:37:49;13.9;99.9
53675;DHT22;39574;50.534;8.500;2022-10-16T05:42:49;13.9;99.9
53675;DHT22;39574;50.534;8.500;2022-10-16T05:52:16;13.9;99.9
53675;DHT22;39574;50.534;8.500;2022-10-16T05:57:17;14.0;99.9
53675;DHT22;39574;50.534;8.500;2022-10-16T06:02:30;14.0;99.9
53675;DHT22;39574;50.534;8.500;2022-10-16T06:07:45;14.0;99.9
53675;DHT22;39574;50.534;8.500;2022-10-16T06:12:46;14.0;99.9
53675;DHT22;39574;50.534;8.500;2022-10-16T06:22:12;13.9;99.9
53675;DHT22;39574;50.534;8.500;2022-10-16T06:27:23;13.9;99.9
53675;DHT22;39574;50.534;8.500;2022-10-16T06:32:28;13.9;99.9
53675;DHT22;39574;50.534;8.500;2022-10-16T06:37:38;13.9;99.9
53675;DHT22;39574;50.534;8.500;2022-10-16T06:42:39;13.9;99.9
53675;DHT22;39574;50.534;8.500;2022-10-16T06:52:20;13.9;99.9
53675;DHT22;39574;50.534;8.500;2022-10-16T06:57:23;13.9;99.9
53675;DHT22;39574;50.534;8.500;2022-10-16T07:02:35;14.0;99.9
53675;DHT22;39574;50.534;8.500;2022-10-16T07:07:36;14.0;99.9
53675;DHT22;39574;50.534;8.500;2022-10-16T07:12:36;14.1;99.9
53675;DHT22;39574;50.534;8.500;2022-10-16T07:17:46;14.1;99.9
53675;DHT22;39574;50.534;8.500;2022-10-16T07:27:02;14.1;99.9
53675;DHT22;39574;50.534;8.500;2022-10-16T07:32:04;14.2;99.9
53675;DHT22;39574;50.534;8.500;2022-10-16T07:37:12;14.3;99.9
53675;DHT22;39574;50.534;8.500;2022-10-16T07:42:13;14.4;99.9
53675;DHT22;39574;50.534;8.500;2022-10-16T07:47:26;14.5;99.9
53675;DHT22;39574;50.534;8.500;2022-10-16T07:52:28;14.5;99.9
53675;DHT22;39574;50.534;8.500;2022-10-16T08:01:47;14.6;99.9
53675;DHT22;39574;50.534;8.500;2022-10-16T08:07:08;14.6;99.9
53675;DHT22;39574;50.534;8.500;2022-10-16T08:12:22;14.6;99.9
53675;DHT22;39574;50.534;8.500;2022-10-16T08:17:23;14.7;99.9
53675;DHT22;39574;50.534;8.500;2022-10-16T08:26:53;14.7;99.9
53675;DHT22;39574;50.534;8.500;2022-10-16T08:32:04;14.8;99.9
53675;DHT22;39574;50.534;8.500;2022-10-16T08:37:08;14.9;99.9
53675;DHT22;39574;50.534;8.500;2022-10-16T08:42:25;15.1;99.9
53675;DHT22;39574;50.534;8.500;2022-10-16T08:51:51;15.2;99.9
53675;DHT22;39574;50.534;8.500;2022-10-16T08:57:07;15.3;99.9
53675;DHT22;39574;50.534;8.500;2022-10-16T09:02:02;15.4;99.9
53675;DHT22;39574;50.534;8.500;2022-10-16T09:07:04;15.5;99.9
53675;DHT22;39574;50.534;8.500;2022-10-16T09:12:08;15.8;99.9
53675;DHT22;39574;50.534;8.500;2022-10-16T09:17:21;16.3;99.9
53675;DHT22;39574;50.534;8.500;2022-10-16T09:26:46;16.7;99.9
53675;DHT22;39574;50.534;8.500;2022-10-16T09:32:07;17.0;99.9
53675;DHT22;39574;50.534;8.500;2022-10-16T09:37:13;17.0;99.9
53675;DHT22;39574;50.534;8.500;2022-10-16T09:42:16;17.0;99.9
53675;DHT22;39574;50.534;8.500;2022-10-16T09:51:42;17.1;99.9
53675;DHT22;39574;50.534;8.500;2022-10-16T09:56:44;17.2;99.9
53675;DHT22;39574;50.534;8.500;2022-10-16T10:01:55;17.3;99.9
53675;DHT22;39574;50.534;8.500;2022-10-16T10:06:58;17.2;99.9
53675;DHT22;39574;50.534;8.500;2022-10-16T10:12:14;17.1;99.9
53675;DHT22;39574;50.534;8.500;2022-10-16T10:17:10;17.1;99.9
53675;DHT22;39574;50.534;8.500;2022-10-16T10:22:21;17.3;99.9
53675;DHT22;39574;50.534;8.500;2022-10-16T10:27:13;17.6;99.9
53675;DHT22;39574;50.534;8.500;2022-10-16T10:36:38;18.2;99.9
53675;DHT22;39574;50.534;8.500;2022-10-16T10:41:50;18.8;99.9
53675;DHT22;39574;50.534;8.500;2022-10-16T10:46:50;19.0;99.9
53675;DHT22;39574;50.534;8.500;2022-10-16T10:51:55;19.1;99.9
53675;DHT22;39574;50.534;8.500;2022-10-16T10:57:08;19.4;99.9
53675;DHT22;39574;50.534;8.500;2022-10-16T11:06:35;19.7;99.9
53675;DHT22;39574;50.534;8.500;2022-10-16T11:11:38;20.2;99.9
53675;DHT22;39574;50.534;8.500;2022-10-16T11:16:52;20.8;99.9
53675;DHT22;39574;50.534;8.500;2022-10-16T11:22:05;21.2;99.9
53675;DHT22;39574;50.534;8.500;2022-10-16T11:31:34;21.5;99.9
53675;DHT22;39574;50.534;8.500;2022-10-16T11:36:47;21.8;99.9
53675;DHT22;39574;50.534;8.500;2022-10-16T11:42:01;22.0;99.9
53675;DHT22;39574;50.534;8.500;2022-10-16T11:51:33;22.2;99.9
53675;DHT22;39574;50.534;8.500;2022-10-16T11:56:35;22.5;99.9
53675;DHT22;39574;50.534;8.500;2022-10-16T12:01:42;22.8;99.9
53675;DHT22;39574;50.534;8.500;2022-10-16T12:06:47;22.6;99.9
53675;DHT22;39574;50.534;8.500;2022-10-16T12:11:59;22.6;99.9
53675;DHT22;39574;50.534;8.500;2022-10-16T12:17:00;22.0;99.9
53675;DHT22;39574;50.534;8.500;2022-10-16T12:26:41;21.4;99.9
53675;DHT22;39574;50.534;8.500;2022-10-16T12:31:45;20.9;99.9
53675;DHT22;39574;50.534;8.500;2022-10-16T12:37:07;20.5;99.9
53675;DHT22;39574;50.534;8.500;2022-10-16T12:42:00;20.2;99.9
53675;DHT22;39574;50.534;8.500;2022-10-16T12:51:09;20.0;99.9
53675;DHT22;39574;50.534;8.500;2022-10-16T12:56:28;20.5;99.9
53675;DHT22;39574;50.534;8.500;2022-10-16T13:01:43;21.2;99.9
53675;DHT22;39574;50.534;8.500;2022-10-16T13:06:53;21.7;99.9
53675;DHT22;39574;50.534;8.500;2022-10-16T13:12:00;22.0;99.9
53675;DHT22;39574;50.534;8.500;2022-10-16T13:17:00;22.4;99.9
53675;DHT22;39574;50.534;8.500;2022-10-16T13:26:38;23.0;99.9
53675;DHT22;39574;50.534;8.500;2022-10-16T13:31:49;22.9;99.9
53675;DHT22;39574;50.534;8.500;2022-10-16T13:36:56;22.4;99.9
53675;DHT22;39574;50.534;8.500;2022-10-16T13:46:05;21.7;99.9
53675;DHT22;39574;50.534;8.500;2022-10-16T13:51:23;20.9;99.9
53675;DHT22;39574;50.534;8.500;2022-10-16T13:56:25;20.7;99.9
53675;DHT22;39574;50.534;8.500;2022-10-16T14:01:39;21.4;99.9
53675;DHT22;39574;50.534;8.500;2022-10-16T14:06:40;22.1;99.9
53675;DHT22;39574;50.534;8.500;2022-10-16T14:11:54;22.5;99.9
53675;DHT22;39574;50.534;8.500;2022-10-16T14:21:32;22.1;99.9
53675;DHT22;39574;50.534;8.500;2022-10-16T14:26:41;21.5;99.9
53675;DHT22;39574;50.534;8.500;2022-10-16T14:31:35;21.0;99.9
53675;DHT22;39574;50.534;8.500;2022-10-16T14:36:36;20.6;99.9
53675;DHT22;39574;50.534;8.500;2022-10-16T14:41:40;20.5;99.9
53675;DHT22;39574;50.534;8.500;2022-10-16T14:46:51;20.3;99.9
53675;DHT22;39574;50.534;8.500;2022-10-16T14:56:05;20.1;99.9
53675;DHT22;39574;50.534;8.500;2022-10-16T15:01:17;19.9;99.9
53675;DHT22;39574;50.534;8.500;2022-10-16T15:06:29;19.6;99.9
53675;DHT22;39574;50.534;8.500;2022-10-16T15:11:31;19.5;99.9
53675;DHT22;39574;50.534;8.500;2022-10-16T15:16:33;19.4;99.9
53675;DHT22;39574;50.534;8.500;2022-10-16T15:21:46;19.4;99.9
53675;DHT22;39574;50.534;8.500;2022-10-16T15:31:13;19.4;99.9
53675;DHT22;39574;50.534;8.500;2022-10-16T15:36:13;19.5;99.9
53675;DHT22;39574;50.534;8.500;2022-10-16T15:41:14;19.6;99.9
53675;DHT22;39574;50.534;8.500;2022-10-16T15:46:25;19.5;99.9
53675;DHT22;39574;50.534;8.500;2022-10-16T15:51:26;19.4;99.9
53675;DHT22;39574;50.534;8.500;2022-10-16T15:56:41;19.1;99.9
53675;DHT22;39574;50.534;8.500;2022-10-16T16:06:13;18.9;99.9
53675;DHT22;39574;50.534;8.500;2022-10-16T16:11:27;18.6;99.9
53675;DHT22;39574;50.534;8.500;2022-10-16T16:16:37;18.5;99.9
53675;DHT22;39574;50.534;8.500;2022-10-16T16:26:10;18.3;99.9
53675;DHT22;39574;50.534;8.500;2022-10-16T16:31:24;18.2;99.9
53675;DHT22;39574;50.534;8.500;2022-10-16T16:36:26;18.1;99.9
53675;DHT22;39574;50.534;8.500;2022-10-16T16:41:36;18.0;99.9
53675;DHT22;39574;50.534;8.500;2022-10-16T16:51:08;17.9;99.9
53675;DHT22;39574;50.534;8.500;2022-10-16T16:56:20;17.8;99.9
53675;DHT22;39574;50.534;8.500;2022-10-16T17:01:21;17.7;99.9
53675;DHT22;39574;50.534;8.500;2022-10-16T17:06:24;17.6;99.9
53675;DHT22;39574;50.534;8.500;2022-10-16T17:11:34;17.5;99.9
53675;DHT22;39574;50.534;8.500;2022-10-16T17:21:04;17.5;99.9
53675;DHT22;39574;50.534;8.500;2022-10-16T17:26:15;17.4;99.9
53675;DHT22;39574;50.534;8.500;2022-10-16T17:31:30;17.4;99.9
53675;DHT22;39574;50.534;8.500;2022-10-16T17:36:32;17.4;99.9
53675;DHT22;39574;50.534;8.500;2022-10-16T17:46:01;17.4;99.9
53675;DHT22;39574;50.534;8.500;2022-10-16T17:51:11;17.3;99.9
53675;DHT22;39574;50.534;8.500;2022-10-16T17:56:15;17.3;99.9
53675;DHT22;39574;50.534;8.500;2022-10-16T18:01:17;17.3;99.9
53675;DHT22;39574;50.534;8.500;2022-10-16T18:06:24;17.2;99.9
53675;DHT22;39574;50.534;8.500;2022-10-16T18:11:29;17.1;99.9
53675;DHT22;39574;50.534;8.500;2022-10-16T18:20:54;17.0;99.9
53675;DHT22;39574;50.534;8.500;2022-10-16T18:25:55;16.9;99.9
53675;DHT22;39574;50.534;8.500;2022-10-16T18:31:10;16.8;99.9
53675;DHT22;39574;50.534;8.500;2022-10-16T18:36:10;16.8;99.9
53675;DHT22;39574;50.534;8.500;2022-10-16T18:41:24;16.8;99.9
53675;DHT22;39574;50.534;8.500;2022-10-16T18:46:25;16.7;99.9
53675;DHT22;39574;50.534;8.500;2022-10-16T18:56:08;16.6;99.9
53675;DHT22;39574;50.534;8.500;2022-10-16T19:01:20;16.5;99.9
53675;DHT22;39574;50.534;8.500;2022-10-16T19:06:19;16.4;99.9
53675;DHT22;39574;50.534;8.500;2022-10-16T19:16:01;16.4;99.9
53675;DHT22;39574;50.534;8.500;2022-10-16T19:21:02;16.4;99.9
53675;DHT22;39574;50.534;8.500;2022-10-16T19:26:16;16.3;99.9
53675;DHT22;39574;50.534;8.500;2022-10-16T19:31:18;16.1;99.9
53675;DHT22;39574;50.534;8.500;2022-10-16T19:36:19;15.9;99.9
53675;DHT22;39574;50.534;8.500;2022-10-16T19:45:45;15.8;99.9
53675;DHT22;39574;50.534;8.500;2022-10-16T19:50:56;15.8;99.9
53675;DHT22;39574;50.534;8.500;2022-10-16T19:55:57;15.8;99.9
53675;DHT22;39574;50.534;8.500;2022-10-16T20:01:00;15.8;99.9
53675;DHT22;39574;50.534;8.500;2022-10-16T20:06:13;15.7;99.9
53675;DHT22;39574;50.534;8.500;2022-10-16T20:15:41;15.5;99.9
53675;DHT22;39574;50.534;8.500;2022-10-16T20:20:55;15.5;99.9
53675;DHT22;39574;50.534;8.500;2022-10-16T20:26:08;15.5;99.9
53675;DHT22;39574;50.534;8.500;2022-10-16T20:35:34;15.5;99.9
53675;DHT22;39574;50.534;8.500;2022-10-16T20:40:41;15.5;99.9
53675;DHT22;39574;50.534;8.500;2022-10-16T20:45:57;15.4;99.9
53675;DHT22;39574;50.534;8.500;2022-10-16T20:51:09;15.4;99.9
53675;DHT22;39574;50.534;8.500;2022-10-16T20:56:05;15.4;99.9
53675;DHT22;39574;50.534;8.500;2022-10-16T21:05:32;15.4;99.9
53675;DHT22;39574;50.534;8.500;2022-10-16T21:10:33;15.3;99.9
53675;DHT22;39574;50.534;8.500;2022-10-16T21:15:45;15.3;99.9
53675;DHT22;39574;50.534;8.500;2022-10-16T21:20:49;15.2;99.9
53675;DHT22;39574;50.534;8.500;2022-10-16T21:25:57;15.2;99.9
53675;DHT22;39574;50.534;8.500;2022-10-16T21:31:09;15.2;99.9
53675;DHT22;39574;50.534;8.500;2022-10-16T21:40:29;15.2;99.9
53675;DHT22;39574;50.534;8.500;2022-10-16T21:45:39;15.2;99.9
53675;DHT22;39574;50.534;8.500;2022-10-16T21:50:46;15.2;99.9
53675;DHT22;39574;50.534;8.500;2022-10-16T21:55:42;15.2;99.9
53675;DHT22;39574;50.534;8.500;2022-10-16T22:00:53;15.1;99.9
53675;DHT22;39574;50.534;8.500;2022-10-16T22:10:25;15.0;99.9
53675;DHT22;39574;50.534;8.500;2022-10-16T22:15:38;15.0;99.9
53675;DHT22;39574;50.534;8.500;2022-10-16T22:20:51;14.9;99.9
53675;DHT22;39574;50.534;8.500;2022-10-16T22:30:21;14.9;99.9
53675;DHT22;39574;50.534;8.500;2022-10-16T22:35:24;14.9;99.9
53675;DHT22;39574;50.534;8.500;2022-10-16T22:40:32;14.9;99.9
53675;DHT22;39574;50.534;8.500;2022-10-16T22:45:46;14.8;99.9
53675;DHT22;39574;50.534;8.500;2022-10-16T22:50:47;14.7;99.9
53675;DHT22;39574;50.534;8.500;2022-10-16T22:55:49;14.7;99.9
53675;DHT22;39574;50.534;8.500;2022-10-16T23:00:50;14.7;99.9
53675;DHT22;39574;50.534;8.500;2022-10-16T23:10:16;14.7;99.9
53675;DHT22;39574;50.534;8.500;2022-10-16T23:15:18;14.7;99.9
53675;DHT22;39574;50.534;8.500;2022-10-16T23:20:31;14.7;99.9
53675;DHT22;39574;50.534;8.500;2022-10-16T23:25:43;14.6;99.9
53675;DHT22;39574;50.534;8.500;2022-10-16T23:30:44;14.5;99.9
53675;DHT22;39574;50.534;8.500;2022-10-16T23:40:12;14.4;99.9
53675;DHT22;39574;50.534;8.500;2022-10-16T23:45:23;14.4;99.9
53675;DHT22;39574;50.534;8.500;2022-10-16T23:50:36;14.4;99.9
53675;DHT22;39574;50.534;8.500;2022-10-16T23:55:38;14.4;99.9
